sensor_id;sensor_type;location;lat;lon;timestamp;pressure;altitude;pressure_sealevel;temperature;humidity
56198;BME280;42700;42.524;12.052;2022-11-22T00:00:10;97358.97;;;11.56;100.00
56198;BME280;42700;42.524;12.052;2022-11-22T00:02:36;97340.72;;;11.53;100.00
56198;BME280;42700;42.524;12.052;2022-11-22T00:05:02;97271.53;;;11.47;100.00
56198;BME280;42700;42.524;12.052;2022-11-22T00:07:28;97335.03;;;11.56;100.00
56198;BME280;42700;42.524;12.052;2022-11-22T00:09:53;97352.72;;;11.64;100.00
56198;BME280;42700;42.524;12.052;2022-11-22T00:12:19;97223.25;;;11.43;100.00
56198;BME280;42700;42.524;12.052;2022-11-22T00:14:44;97296.63;;;11.59;100.00
56198;BME280;42700;42.524;12.052;2022-11-22T00:17:10;97210.59;;;11.45;100.00
56198;BME280;42700;42.524;12.052;2022-11-22T00:19:35;97245.84;;;11.54;100.00
56198;BME280;42700;42.524;12.052;2022-11-22T00:22:04;97295.41;;;11.61;100.00
56198;BME280;42700;42.524;12.052;2022-11-22T00:24:29;97281.09;;;11.62;100.00
56198;BME280;42700;42.524;12.052;2022-11-22T00:26:55;97243.00;;;11.55;100.00
56198;BME280;42700;42.524;12.052;2022-11-22T00:29:20;97313.88;;;11.70;100.00
56198;BME280;42700;42.524;12.052;2022-11-22T00:31:46;97337.66;;;11.78;100.00
56198;BME280;42700;42.524;12.052;2022-11-22T00:34:11;97156.03;;;11.49;100.00
56198;BME280;42700;42.524;12.052;2022-11-22T00:36:37;97382.56;;;11.88;100.00
56198;BME280;42700;42.524;12.052;2022-11-22T00:39:02;97306.78;;;11.77;100.00
56198;BME280;42700;42.524;12.052;2022-11-22T00:41:27;97276.25;;;11.73;100.00
56198;BME280;42700;42.524;12.052;2022-11-22T00:43:53;97349.22;;;11.85;100.00
56198;BME280;42700;42.524;12.052;2022-11-22T00:46:18;97263.19;;;11.78;100.00
56198;BME280;42700;42.524;12.052;2022-11-22T00:48:44;97350.84;;;11.86;100.00
56198;BME280;42700;42.524;12.052;2022-11-22T00:51:09;97399.03;;;11.98;100.00
56198;BME280;42700;42.524;12.052;2022-11-22T00:53:36;97344.41;;;11.95;100.00
56198;BME280;42700;42.524;12.052;2022-11-22T00:56:02;97393.53;;;11.99;100.00
56198;BME280;42700;42.524;12.052;2022-11-22T00:58:27;97346.66;;;11.98;100.00
56198;BME280;42700;42.524;12.052;2022-11-22T01:00:53;97274.28;;;11.88;100.00
56198;BME280;42700;42.524;12.052;2022-11-22T01:03:18;97013.69;;;11.53;100.00
56198;BME280;42700;42.524;12.052;2022-11-22T01:05:44;97157.59;;;11.72;100.00
56198;BME280;42700;42.524;12.052;2022-11-22T01:08:09;97066.28;;;11.64;100.00
56198;BME280;42700;42.524;12.052;2022-11-22T01:10:35;97004.09;;;11.52;100.00
56198;BME280;42700;42.524;12.052;2022-11-22T01:13:01;97066.28;;;11.64;100.00
56198;BME280;42700;42.524;12.052;2022-11-22T01:15:26;97059.56;;;11.62;100.00
56198;BME280;42700;42.524;12.052;2022-11-22T01:17:52;97054.44;;;11.60;100.00
56198;BME280;42700;42.524;12.052;2022-11-22T01:20:17;97078.59;;;11.66;100.00
56198;BME280;42700;42.524;12.052;2022-11-22T01:22:43;96988.53;;;11.56;100.00
56198;BME280;42700;42.524;12.052;2022-11-22T01:25:08;96898.13;;;11.42;100.00
56198;BME280;42700;42.524;12.052;2022-11-22T01:27:34;96913.28;;;11.49;100.00
56198;BME280;42700;42.524;12.052;2022-11-22T01:29:59;96940.66;;;11.49;100.00
56198;BME280;42700;42.524;12.052;2022-11-22T01:32:25;96935.34;;;11.49;100.00
56198;BME280;42700;42.524;12.052;2022-11-22T01:34:50;96999.19;;;11.56;100.00
56198;BME280;42700;42.524;12.052;2022-11-22T01:37:16;97035.41;;;11.63;100.00
56198;BME280;42700;42.524;12.052;2022-11-22T01:39:42;96919.41;;;11.49;100.00
56198;BME280;42700;42.524;12.052;2022-11-22T01:42:08;96919.41;;;11.49;100.00
56198;BME280;42700;42.524;12.052;2022-11-22T01:44:34;96893.22;;;11.46;100.00
56198;BME280;42700;42.524;12.052;2022-11-22T01:47:01;96975.03;;;11.57;100.00
56198;BME280;42700;42.524;12.052;2022-11-22T01:49:29;96955.41;;;11.58;100.00
56198;BME280;42700;42.524;12.052;2022-11-22T01:52:01;96975.47;;;11.61;100.00
56198;BME280;42700;42.524;12.052;2022-11-22T01:54:28;96941.09;;;11.59;100.00
56198;BME280;42700;42.524;12.052;2022-11-22T01:56:57;97070.03;;;11.77;100.00
56198;BME280;42700;42.524;12.052;2022-11-22T01:59:24;97062.28;;;11.82;100.00
56198;BME280;42700;42.524;12.052;2022-11-22T02:01:51;97107.72;;;11.87;100.00
56198;BME280;42700;42.524;12.052;2022-11-22T02:04:16;97123.28;;;11.90;100.00
56198;BME280;42700;42.524;12.052;2022-11-22T02:09:15;97166.34;;;12.00;100.00
56198;BME280;42700;42.524;12.052;2022-11-22T02:11:43;97043.47;;;11.90;100.00
56198;BME280;42700;42.524;12.052;2022-11-22T02:14:10;96998.03;;;11.85;100.00
56198;BME280;42700;42.524;12.052;2022-11-22T02:16:36;97138.72;;;12.02;100.00
56198;BME280;42700;42.524;12.052;2022-11-22T02:19:04;97296.69;;;12.29;100.00
56198;BME280;42700;42.524;12.052;2022-11-22T02:21:30;97067.50;;;12.10;100.00
56198;BME280;42700;42.524;12.052;2022-11-22T02:24:43;97196.72;;;12.26;100.00
56198;BME280;42700;42.524;12.052;2022-11-22T02:26:41;97226.25;;;12.31;100.00
56198;BME280;42700;42.524;12.052;2022-11-22T02:29:07;97102.53;;;12.21;100.00
56198;BME280;42700;42.524;12.052;2022-11-22T02:31:37;97279.75;;;12.43;100.00
56198;BME280;42700;42.524;12.052;2022-11-22T02:34:03;97161.94;;;12.34;100.00
56198;BME280;42700;42.524;12.052;2022-11-22T02:36:30;97037.44;;;12.16;100.00
56198;BME280;42700;42.524;12.052;2022-11-22T02:38:57;97093.53;;;12.22;100.00
56198;BME280;42700;42.524;12.052;2022-11-22T02:41:23;97067.31;;;12.18;100.00
56198;BME280;42700;42.524;12.052;2022-11-22T02:43:49;96802.41;;;11.76;100.00
56198;BME280;42700;42.524;12.052;2022-11-22T02:46:14;96970.66;;;12.05;100.00
56198;BME280;42700;42.524;12.052;2022-11-22T02:48:44;96866.88;;;11.91;100.00
56198;BME280;42700;42.524;12.052;2022-11-22T02:51:11;96920.53;;;12.02;100.00
56198;BME280;42700;42.524;12.052;2022-11-22T02:53:43;96931.78;;;12.04;100.00
56198;BME280;42700;42.524;12.052;2022-11-22T02:56:09;96864.22;;;11.98;100.00
56198;BME280;42700;42.524;12.052;2022-11-22T02:58:34;96879.38;;;11.97;100.00
56198;BME280;42700;42.524;12.052;2022-11-22T03:01:00;96949.78;;;12.02;100.00
56198;BME280;42700;42.524;12.052;2022-11-22T03:03:25;96916.63;;;12.04;100.00
56198;BME280;42700;42.524;12.052;2022-11-22T03:05:51;96985.19;;;12.09;100.00
56198;BME280;42700;42.524;12.052;2022-11-22T03:08:16;97055.81;;;12.18;100.00
56198;BME280;42700;42.524;12.052;2022-11-22T03:10:42;97086.16;;;12.30;100.00
56198;BME280;42700;42.524;12.052;2022-11-22T03:13:07;97098.47;;;12.31;100.00
56198;BME280;42700;42.524;12.052;2022-11-22T03:15:32;96826.56;;;11.94;100.00
56198;BME280;42700;42.524;12.052;2022-11-22T03:17:59;96846.22;;;11.93;100.00
56198;BME280;42700;42.524;12.052;2022-11-22T03:20:25;96836.59;;;11.92;100.00
56198;BME280;42700;42.524;12.052;2022-11-22T03:22:50;97049.50;;;12.19;100.00
56198;BME280;42700;42.524;12.052;2022-11-22T03:25:16;96974.75;;;12.14;100.00
56198;BME280;42700;42.524;12.052;2022-11-22T03:27:41;97123.44;;;12.30;100.00
56198;BME280;42700;42.524;12.052;2022-11-22T03:30:07;97046.03;;;12.25;100.00
56198;BME280;42700;42.524;12.052;2022-11-22T03:32:32;97057.69;;;12.24;100.00
56198;BME280;42700;42.524;12.052;2022-11-22T03:34:58;97065.28;;;12.27;100.00
56198;BME280;42700;42.524;12.052;2022-11-22T03:37:23;97171.56;;;12.35;100.00
56198;BME280;42700;42.524;12.052;2022-11-22T03:39:49;97121.38;;;12.32;100.00
56198;BME280;42700;42.524;12.052;2022-11-22T03:42:14;97143.53;;;12.40;100.00
56198;BME280;42700;42.524;12.052;2022-11-22T03:44:40;97296.00;;;12.62;100.00
56198;BME280;42700;42.524;12.052;2022-11-22T03:47:05;97182.88;;;12.51;100.00
56198;BME280;42700;42.524;12.052;2022-11-22T03:49:31;97165.66;;;12.47;100.00
56198;BME280;42700;42.524;12.052;2022-11-22T03:51:56;97089.44;;;12.39;100.00
56198;BME280;42700;42.524;12.052;2022-11-22T03:54:22;97147.03;;;12.47;100.00
56198;BME280;42700;42.524;12.052;2022-11-22T03:56:47;97337.22;;;12.72;100.00
56198;BME280;42700;42.524;12.052;2022-11-22T03:59:13;97254.81;;;12.64;100.00
56198;BME280;42700;42.524;12.052;2022-11-22T04:01:38;97225.13;;;12.67;100.00
56198;BME280;42700;42.524;12.052;2022-11-22T04:04:04;97286.22;;;12.76;100.00
56198;BME280;42700;42.524;12.052;2022-11-22T04:06:29;97314.13;;;12.80;100.00
56198;BME280;42700;42.524;12.052;2022-11-22T04:08:55;97292.19;;;12.78;100.00
56198;BME280;42700;42.524;12.052;2022-11-22T04:11:20;97420.75;;;12.93;100.00
56198;BME280;42700;42.524;12.052;2022-11-22T04:13:46;97399.84;;;12.97;100.00
56198;BME280;42700;42.524;12.052;2022-11-22T04:16:30;97463.06;;;13.09;100.00
56198;BME280;42700;42.524;12.052;2022-11-22T04:18:55;97399.50;;;13.06;100.00
56198;BME280;42700;42.524;12.052;2022-11-22T04:21:21;97367.91;;;13.03;100.00
56198;BME280;42700;42.524;12.052;2022-11-22T04:24:08;97351.91;;;13.03;100.00
56198;BME280;42700;42.524;12.052;2022-11-22T04:27:03;97374.47;;;13.07;100.00
56198;BME280;42700;42.524;12.052;2022-11-22T04:29:29;97537.38;;;13.26;100.00
56198;BME280;42700;42.524;12.052;2022-11-22T04:31:54;97398.31;;;13.16;100.00
56198;BME280;42700;42.524;12.052;2022-11-22T04:34:38;97530.25;;;13.33;100.00
56198;BME280;42700;42.524;12.052;2022-11-22T04:37:04;97587.97;;;13.41;100.00
56198;BME280;42700;42.524;12.052;2022-11-22T04:39:29;97544.66;;;13.39;100.00
56198;BME280;42700;42.524;12.052;2022-11-22T04:41:55;97495.59;;;13.33;100.00
56198;BME280;42700;42.524;12.052;2022-11-22T04:44:39;97536.44;;;13.40;100.00
56198;BME280;42700;42.524;12.052;2022-11-22T04:47:05;97529.09;;;13.42;100.00
56198;BME280;42700;42.524;12.052;2022-11-22T04:49:31;97650.03;;;13.63;100.00
56198;BME280;42700;42.524;12.052;2022-11-22T04:51:56;97678.00;;;13.67;100.00
56198;BME280;42700;42.524;12.052;2022-11-22T04:54:40;97675.56;;;13.72;100.00
56198;BME280;42700;42.524;12.052;2022-11-22T04:57:05;97703.47;;;13.76;100.00
56198;BME280;42700;42.524;12.052;2022-11-22T04:59:31;97698.75;;;13.78;100.00
56198;BME280;42700;42.524;12.052;2022-11-22T05:01:56;97580.66;;;13.63;100.00
56198;BME280;42700;42.524;12.052;2022-11-22T05:04:22;97612.91;;;13.68;100.00
56198;BME280;42700;42.524;12.052;2022-11-22T05:06:47;97620.53;;;13.71;100.00
56198;BME280;42700;42.524;12.052;2022-11-22T05:09:13;97600.44;;;13.75;100.00
56198;BME280;42700;42.524;12.052;2022-11-22T05:11:39;97736.84;;;13.94;100.00
56198;BME280;42700;42.524;12.052;2022-11-22T05:14:04;97684.47;;;13.93;100.00
56198;BME280;42700;42.524;12.052;2022-11-22T05:16:30;97757.00;;;14.03;100.00
56198;BME280;42700;42.524;12.052;2022-11-22T05:18:55;97776.59;;;14.10;100.00
56198;BME280;42700;42.524;12.052;2022-11-22T05:21:24;97821.41;;;14.21;100.00
56198;BME280;42700;42.524;12.052;2022-11-22T05:23:50;97847.53;;;14.26;100.00
56198;BME280;42700;42.524;12.052;2022-11-22T05:26:22;97863.97;;;14.30;100.00
56198;BME280;42700;42.524;12.052;2022-11-22T05:28:48;97847.56;;;14.33;100.00
56198;BME280;42700;42.524;12.052;2022-11-22T05:31:15;97862.81;;;14.39;100.00
56198;BME280;42700;42.524;12.052;2022-11-22T05:33:42;97845.13;;;14.38;100.00
56198;BME280;42700;42.524;12.052;2022-11-22T05:36:08;97835.47;;;14.37;100.00
56198;BME280;42700;42.524;12.052;2022-11-22T05:38:34;97801.16;;;14.34;100.00
56198;BME280;42700;42.524;12.052;2022-11-22T05:41:02;97737.81;;;14.28;100.00
56198;BME280;42700;42.524;12.052;2022-11-22T05:43:28;97804.03;;;14.39;100.00
56198;BME280;42700;42.524;12.052;2022-11-22T05:45:53;97705.38;;;14.31;100.00
56198;BME280;42700;42.524;12.052;2022-11-22T05:48:19;97803.66;;;14.42;100.00
56198;BME280;42700;42.524;12.052;2022-11-22T05:50:44;97797.91;;;14.45;100.00
56198;BME280;42700;42.524;12.052;2022-11-22T05:53:10;97753.91;;;14.41;100.00
56198;BME280;42700;42.524;12.052;2022-11-22T05:55:35;97808.22;;;14.48;100.00
56198;BME280;42700;42.524;12.052;2022-11-22T05:58:01;97795.06;;;14.53;100.00
56198;BME280;42700;42.524;12.052;2022-11-22T06:00:27;97796.69;;;14.54;100.00
56198;BME280;42700;42.524;12.052;2022-11-22T06:02:52;97786.00;;;14.54;100.00
56198;BME280;42700;42.524;12.052;2022-11-22T06:05:18;97703.38;;;14.46;100.00
56198;BME280;42700;42.524;12.052;2022-11-22T06:07:43;97668.81;;;14.38;100.00
56198;BME280;42700;42.524;12.052;2022-11-22T06:10:09;97601.41;;;14.29;100.00
56198;BME280;42700;42.524;12.052;2022-11-22T06:12:35;97604.50;;;14.33;100.00
56198;BME280;42700;42.524;12.052;2022-11-22T06:15:00;97623.19;;;14.33;100.00
56198;BME280;42700;42.524;12.052;2022-11-22T06:17:26;97529.50;;;14.14;100.00
56198;BME280;42700;42.524;12.052;2022-11-22T06:19:51;97441.56;;;13.86;100.00
56198;BME280;42700;42.524;12.052;2022-11-22T06:22:17;97466.19;;;13.81;100.00
56198;BME280;42700;42.524;12.052;2022-11-22T06:24:42;97342.81;;;13.59;100.00
56198;BME280;42700;42.524;12.052;2022-11-22T06:27:08;97333.34;;;13.57;100.00
56198;BME280;42700;42.524;12.052;2022-11-22T06:29:33;97219.50;;;13.44;100.00
56198;BME280;42700;42.524;12.052;2022-11-22T06:31:59;97064.41;;;13.20;100.00
56198;BME280;42700;42.524;12.052;2022-11-22T06:34:24;97128.63;;;13.32;100.00
56198;BME280;42700;42.524;12.052;2022-11-22T06:36:50;97067.06;;;13.27;100.00
56198;BME280;42700;42.524;12.052;2022-11-22T06:39:15;97052.94;;;13.26;100.00
56198;BME280;42700;42.524;12.052;2022-11-22T06:41:41;96963.31;;;13.19;100.00
56198;BME280;42700;42.524;12.052;2022-11-22T06:44:07;97004.53;;;13.23;100.00
56198;BME280;42700;42.524;12.052;2022-11-22T06:46:33;96987.94;;;13.21;100.00
56198;BME280;42700;42.524;12.052;2022-11-22T06:48:59;96864.38;;;13.02;100.00
56198;BME280;42700;42.524;12.052;2022-11-22T06:51:26;96800.44;;;12.95;100.00
56198;BME280;42700;42.524;12.052;2022-11-22T06:53:52;96848.00;;;12.98;100.00
56198;BME280;42700;42.524;12.052;2022-11-22T06:56:22;96720.59;;;12.82;100.00
56198;BME280;42700;42.524;12.052;2022-11-22T06:58:48;96759.09;;;12.86;100.00
56198;BME280;42700;42.524;12.052;2022-11-22T07:01:16;96738.22;;;12.83;100.00
56198;BME280;42700;42.524;12.052;2022-11-22T07:03:42;96783.69;;;12.88;100.00
56198;BME280;42700;42.524;12.052;2022-11-22T07:06:08;96779.97;;;12.89;100.00
56198;BME280;42700;42.524;12.052;2022-11-22T07:08:34;96748.44;;;12.86;100.00
56198;BME280;42700;42.524;12.052;2022-11-22T07:11:00;96752.94;;;12.85;100.00
56198;BME280;42700;42.524;12.052;2022-11-22T07:13:26;96655.47;;;12.71;100.00
56198;BME280;42700;42.524;12.052;2022-11-22T07:15:53;96688.66;;;12.75;100.00
56198;BME280;42700;42.524;12.052;2022-11-22T07:18:19;96767.31;;;12.84;100.00
56198;BME280;42700;42.524;12.052;2022-11-22T07:20:44;96746.00;;;12.84;100.00
56198;BME280;42700;42.524;12.052;2022-11-22T07:23:11;96696.44;;;12.77;100.00
56198;BME280;42700;42.524;12.052;2022-11-22T07:25:37;96725.91;;;12.82;100.00
56198;BME280;42700;42.524;12.052;2022-11-22T07:28:02;96651.00;;;12.71;100.00
56198;BME280;42700;42.524;12.052;2022-11-22T07:30:28;96629.09;;;12.69;100.00
56198;BME280;42700;42.524;12.052;2022-11-22T07:32:53;96685.19;;;12.74;100.00
56198;BME280;42700;42.524;12.052;2022-11-22T07:35:19;96734.13;;;12.80;100.00
56198;BME280;42700;42.524;12.052;2022-11-22T07:37:45;96689.47;;;12.76;100.00
56198;BME280;42700;42.524;12.052;2022-11-22T07:40:11;96647.75;;;12.69;100.00
56198;BME280;42700;42.524;12.052;2022-11-22T07:42:36;96666.97;;;12.71;100.00
56198;BME280;42700;42.524;12.052;2022-11-22T07:45:02;96626.84;;;12.66;100.00
56198;BME280;42700;42.524;12.052;2022-11-22T07:47:27;96701.78;;;12.77;100.00
56198;BME280;42700;42.524;12.052;2022-11-22T07:49:53;96780.41;;;12.86;100.00
56198;BME280;42700;42.524;12.052;2022-11-22T07:52:18;96668.59;;;12.72;100.00
56198;BME280;42700;42.524;12.052;2022-11-22T07:54:44;96690.31;;;12.76;100.00
56198;BME280;42700;42.524;12.052;2022-11-22T07:57:09;96709.34;;;12.80;100.00
56198;BME280;42700;42.524;12.052;2022-11-22T07:59:35;96706.25;;;12.83;100.00
56198;BME280;42700;42.524;12.052;2022-11-22T08:02:00;96683.28;;;12.82;100.00
56198;BME280;42700;42.524;12.052;2022-11-22T08:04:27;96620.06;;;12.70;100.00
56198;BME280;42700;42.524;12.052;2022-11-22T08:06:52;96670.41;;;12.79;100.00
56198;BME280;42700;42.524;12.052;2022-11-22T08:09:17;96692.09;;;12.82;100.00
56198;BME280;42700;42.524;12.052;2022-11-22T08:11:43;96721.78;;;12.86;100.00
56198;BME280;42700;42.524;12.052;2022-11-22T08:14:09;96689.66;;;12.81;100.00
56198;BME280;42700;42.524;12.052;2022-11-22T08:16:35;96680.03;;;12.80;100.00
56198;BME280;42700;42.524;12.052;2022-11-22T08:19:00;96752.31;;;12.90;100.00
56198;BME280;42700;42.524;12.052;2022-11-22T08:21:25;96767.28;;;12.91;100.00
56198;BME280;42700;42.524;12.052;2022-11-22T08:23:51;96778.31;;;12.95;100.00
56198;BME280;42700;42.524;12.052;2022-11-22T08:26:21;96716.03;;;12.89;100.00
56198;BME280;42700;42.524;12.052;2022-11-22T08:28:47;96700.47;;;12.86;100.00
56198;BME280;42700;42.524;12.052;2022-11-22T08:31:13;96646.00;;;12.82;100.00
56198;BME280;42700;42.524;12.052;2022-11-22T08:33:39;96687.78;;;12.88;100.00
56198;BME280;42700;42.524;12.052;2022-11-22T08:36:05;96625.13;;;12.79;100.00
56198;BME280;42700;42.524;12.052;2022-11-22T08:38:31;96683.88;;;12.84;100.00
56198;BME280;42700;42.524;12.052;2022-11-22T08:40:56;96731.41;;;12.87;100.00
56198;BME280;42700;42.524;12.052;2022-11-22T08:43:22;96553.13;;;12.60;100.00
56198;BME280;42700;42.524;12.052;2022-11-22T08:45:47;96461.91;;;12.46;100.00
56198;BME280;42700;42.524;12.052;2022-11-22T08:48:13;96038.81;;;12.03;100.00
56198;BME280;42700;42.524;12.052;2022-11-22T08:50:38;96440.22;;;12.43;100.00
56198;BME280;42700;42.524;12.052;2022-11-22T08:53:04;96074.47;;;12.02;100.00
56198;BME280;42700;42.524;12.052;2022-11-22T08:55:29;95864.56;;;11.81;100.00
56198;BME280;42700;42.524;12.052;2022-11-22T08:57:58;96065.28;;;11.97;100.00
56198;BME280;42700;42.524;12.052;2022-11-22T09:00:24;96304.28;;;12.19;100.00
56198;BME280;42700;42.524;12.052;2022-11-22T09:02:50;96303.28;;;12.20;100.00
56198;BME280;42700;42.524;12.052;2022-11-22T09:05:15;96356.44;;;12.27;100.00
56198;BME280;42700;42.524;12.052;2022-11-22T09:07:41;96277.91;;;12.17;100.00
56198;BME280;42700;42.524;12.052;2022-11-22T09:10:06;96382.81;;;12.28;100.00
56198;BME280;42700;42.524;12.052;2022-11-22T09:12:32;96452.19;;;12.33;100.00
56198;BME280;42700;42.524;12.052;2022-11-22T09:14:58;96508.25;;;12.39;100.00
56198;BME280;42700;42.524;12.052;2022-11-22T09:17:23;96399.00;;;12.27;100.00
56198;BME280;42700;42.524;12.052;2022-11-22T09:19:49;96529.56;;;12.39;100.00
56198;BME280;42700;42.524;12.052;2022-11-22T09:22:14;96471.03;;;12.32;100.00
56198;BME280;42700;42.524;12.052;2022-11-22T09:24:40;96390.44;;;12.25;100.00
56198;BME280;42700;42.524;12.052;2022-11-22T09:27:05;96325.78;;;12.17;100.00
56198;BME280;42700;42.524;12.052;2022-11-22T09:29:30;96324.19;;;12.16;100.00
56198;BME280;42700;42.524;12.052;2022-11-22T09:31:56;96322.53;;;12.15;100.00
56198;BME280;42700;42.524;12.052;2022-11-22T09:34:21;96239.53;;;12.07;100.00
56198;BME280;42700;42.524;12.052;2022-11-22T09:36:47;96177.38;;;12.01;100.00
56198;BME280;42700;42.524;12.052;2022-11-22T09:39:12;96383.09;;;12.20;100.00
56198;BME280;42700;42.524;12.052;2022-11-22T09:44:08;96180.69;;;11.96;100.00
56198;BME280;42700;42.524;12.052;2022-11-22T09:51:36;96192.97;;;11.97;100.00
56198;BME280;42700;42.524;12.052;2022-11-22T09:54:04;96222.38;;;12.03;100.00
56198;BME280;42700;42.524;12.052;2022-11-22T09:56:31;96284.78;;;12.07;100.00
56198;BME280;42700;42.524;12.052;2022-11-22T09:58:59;96106.25;;;11.90;100.00
56198;BME280;42700;42.524;12.052;2022-11-22T10:01:30;95879.91;;;11.68;100.00
56198;BME280;42700;42.524;12.052;2022-11-22T10:04:05;96127.97;;;11.93;100.00
56198;BME280;42700;42.524;12.052;2022-11-22T10:06:37;96132.81;;;11.96;100.00
56198;BME280;42700;42.524;12.052;2022-11-22T10:11:34;95846.75;;;11.70;100.00
56198;BME280;42700;42.524;12.052;2022-11-22T10:14:03;95837.16;;;11.69;100.00
56198;BME280;42700;42.524;12.052;2022-11-22T10:16:37;95836.94;;;11.71;100.00
56198;BME280;42700;42.524;12.052;2022-11-22T10:19:19;95811.97;;;11.72;100.00
56198;BME280;42700;42.524;12.052;2022-11-22T10:21:47;95701.09;;;11.60;100.00
56198;BME280;42700;42.524;12.052;2022-11-22T10:24:14;95907.94;;;11.82;100.00
56198;BME280;42700;42.524;12.052;2022-11-22T10:26:40;95878.13;;;11.80;100.00
56198;BME280;42700;42.524;12.052;2022-11-22T10:29:19;95519.56;;;11.48;100.00
56198;BME280;42700;42.524;12.052;2022-11-22T10:34:53;95676.22;;;11.67;100.00
56198;BME280;42700;42.524;12.052;2022-11-22T10:37:31;95534.56;;;11.54;100.00
56198;BME280;42700;42.524;12.052;2022-11-22T10:40:02;95638.69;;;11.63;100.00
56198;BME280;42700;42.524;12.052;2022-11-22T10:50:22;95615.34;;;11.65;100.00
56198;BME280;42700;42.524;12.052;2022-11-22T10:55:30;95383.22;;;11.48;100.00
56198;BME280;42700;42.524;12.052;2022-11-22T10:58:03;95557.66;;;11.66;100.00
56198;BME280;42700;42.524;12.052;2022-11-22T11:00:31;95492.13;;;11.59;100.00
56198;BME280;42700;42.524;12.052;2022-11-22T11:05:44;95567.34;;;11.72;100.00
56198;BME280;42700;42.524;12.052;2022-11-22T11:08:12;95566.88;;;11.75;100.00
56198;BME280;42700;42.524;12.052;2022-11-22T11:10:38;95526.97;;;11.75;100.00
56198;BME280;42700;42.524;12.052;2022-11-22T11:13:06;95465.50;;;11.71;100.00
56198;BME280;42700;42.524;12.052;2022-11-22T11:15:41;95462.59;;;11.73;100.00
56198;BME280;42700;42.524;12.052;2022-11-22T11:18:12;95574.00;;;11.86;100.00
56198;BME280;42700;42.524;12.052;2022-11-22T11:20:40;95460.03;;;11.78;100.00
56198;BME280;42700;42.524;12.052;2022-11-22T11:23:09;95407.34;;;11.75;100.00
56198;BME280;42700;42.524;12.052;2022-11-22T11:25:36;95528.31;;;11.89;100.00
56198;BME280;42700;42.524;12.052;2022-11-22T11:30:40;95401.53;;;11.78;100.00
56198;BME280;42700;42.524;12.052;2022-11-22T11:33:29;95188.56;;;11.57;100.00
56198;BME280;42700;42.524;12.052;2022-11-22T11:35:57;95314.19;;;11.70;100.00
56198;BME280;42700;42.524;12.052;2022-11-22T11:38:33;95207.72;;;11.59;100.00
56198;BME280;42700;42.524;12.052;2022-11-22T11:41:19;95443.59;;;11.81;100.00
56198;BME280;42700;42.524;12.052;2022-11-22T11:43:46;95394.63;;;11.77;100.00
56198;BME280;42700;42.524;12.052;2022-11-22T11:46:21;95432.97;;;11.81;100.00
56198;BME280;42700;42.524;12.052;2022-11-22T11:48:48;95392.22;;;11.75;100.00
56198;BME280;42700;42.524;12.052;2022-11-22T11:51:24;95340.31;;;11.73;100.00
56198;BME280;42700;42.524;12.052;2022-11-22T11:53:52;95120.59;;;11.44;100.00
56198;BME280;42700;42.524;12.052;2022-11-22T11:56:19;95044.28;;;11.40;100.00
56198;BME280;42700;42.524;12.052;2022-11-22T11:58:50;95148.31;;;11.49;100.00
56198;BME280;42700;42.524;12.052;2022-11-22T12:01:19;95177.31;;;11.50;100.00
56198;BME280;42700;42.524;12.052;2022-11-22T12:03:55;94918.09;;;11.20;100.00
56198;BME280;42700;42.524;12.052;2022-11-22T12:06:25;95088.09;;;11.37;100.00
56198;BME280;42700;42.524;12.052;2022-11-22T12:08:51;95147.97;;;11.45;100.00
56198;BME280;42700;42.524;12.052;2022-11-22T12:11:19;95146.88;;;11.41;100.00
56198;BME280;42700;42.524;12.052;2022-11-22T12:13:52;95150.06;;;11.43;100.00
56198;BME280;42700;42.524;12.052;2022-11-22T12:16:21;95241.09;;;11.50;100.00
56198;BME280;42700;42.524;12.052;2022-11-22T12:21:38;95148.50;;;11.42;100.00
56198;BME280;42700;42.524;12.052;2022-11-22T12:24:10;95025.56;;;11.30;100.00
56198;BME280;42700;42.524;12.052;2022-11-22T12:26:37;94896.31;;;11.18;100.00
56198;BME280;42700;42.524;12.052;2022-11-22T12:29:03;94893.66;;;11.18;100.00
56198;BME280;42700;42.524;12.052;2022-11-22T12:31:29;95123.44;;;11.38;100.00
56198;BME280;42700;42.524;12.052;2022-11-22T12:34:02;94791.03;;;11.07;100.00
56198;BME280;42700;42.524;12.052;2022-11-22T12:36:41;94939.34;;;11.20;100.00
56198;BME280;42700;42.524;12.052;2022-11-22T12:39:11;94952.63;;;11.20;100.00
56198;BME280;42700;42.524;12.052;2022-11-22T12:41:38;95013.81;;;11.25;100.00
56198;BME280;42700;42.524;12.052;2022-11-22T12:44:05;94820.81;;;11.09;100.00
56198;BME280;42700;42.524;12.052;2022-11-22T12:49:01;94780.94;;;11.04;100.00
56198;BME280;42700;42.524;12.052;2022-11-22T12:51:39;94967.53;;;11.21;100.00
56198;BME280;42700;42.524;12.052;2022-11-22T12:54:18;95074.41;;;11.29;100.00
56198;BME280;42700;42.524;12.052;2022-11-22T13:04:03;94859.75;;;11.03;100.00
56198;BME280;42700;42.524;12.052;2022-11-22T13:09:11;94807.97;;;11.01;100.00
56198;BME280;42700;42.524;12.052;2022-11-22T13:11:38;94872.78;;;11.05;100.00
56198;BME280;42700;42.524;12.052;2022-11-22T13:16:59;94730.31;;;10.88;100.00
56198;BME280;42700;42.524;12.052;2022-11-22T13:19:29;94932.34;;;11.09;100.00
56198;BME280;42700;42.524;12.052;2022-11-22T13:24:57;94320.81;;;10.50;100.00
56198;BME280;42700;42.524;12.052;2022-11-22T13:27:32;94594.00;;;10.73;100.00
56198;BME280;42700;42.524;12.052;2022-11-22T13:29:59;94844.03;;;10.97;100.00
56198;BME280;42700;42.524;12.052;2022-11-22T13:32:31;94634.13;;;10.76;100.00